createdAt,value
2017-10-03T00:02:04.451Z,9.60
2017-10-03T00:04:31.770Z,9.30
2017-10-03T00:06:59.084Z,9.03
2017-10-03T00:09:26.417Z,9.43
2017-10-03T00:11:53.761Z,9.70
2017-10-03T00:14:21.092Z,10.47
2017-10-03T00:16:48.459Z,9.00
2017-10-03T00:19:15.774Z,10.10
2017-10-03T00:21:43.081Z,10.07
2017-10-03T00:24:10.402Z,9.37
2017-10-03T00:26:37.695Z,8.90
2017-10-03T00:29:05.049Z,8.70
2017-10-03T00:31:32.402Z,8.87
2017-10-03T00:33:59.728Z,9.20
2017-10-03T00:36:27.061Z,8.70
2017-10-03T00:38:54.422Z,8.20
2017-10-03T00:41:21.749Z,8.70
2017-10-03T00:43:49.120Z,8.83
2017-10-03T00:46:16.422Z,8.17
2017-10-03T00:48:43.742Z,8.70
2017-10-03T00:51:11.053Z,8.87
2017-10-03T00:53:38.392Z,9.33
2017-10-03T00:56:05.685Z,8.70
2017-10-03T00:58:33.133Z,9.00
2017-10-03T01:01:00.589Z,10.10
2017-10-03T01:03:27.899Z,9.57
2017-10-03T01:05:55.221Z,10.00
2017-10-03T01:08:23.403Z,10.47
2017-10-03T01:10:51.788Z,10.23
2017-10-03T01:13:19.126Z,10.20
2017-10-03T01:15:46.460Z,9.90
2017-10-03T01:18:13.757Z,10.37
2017-10-03T01:20:41.083Z,9.53
2017-10-03T01:23:08.383Z,9.80
2017-10-03T01:25:35.761Z,9.50
2017-10-03T01:28:03.168Z,10.30
2017-10-03T01:30:30.522Z,10.30
2017-10-03T01:32:57.857Z,10.20
2017-10-03T01:35:25.189Z,10.70
2017-10-03T01:37:58.473Z,9.90
2017-10-03T01:40:25.824Z,10.67
2017-10-03T01:42:53.151Z,10.47
2017-10-03T01:45:20.796Z,9.97
2017-10-03T01:47:48.114Z,10.40
2017-10-03T01:50:15.408Z,9.33
2017-10-03T01:52:42.741Z,10.03
2017-10-03T01:55:10.068Z,8.80
2017-10-03T01:57:37.557Z,9.53
2017-10-03T02:00:04.874Z,11.63
2017-10-03T02:02:32.221Z,11.27
2017-10-03T02:04:59.525Z,10.60
2017-10-03T02:07:26.845Z,10.23
2017-10-03T02:09:54.157Z,10.53
2017-10-03T02:12:21.469Z,9.60
2017-10-03T02:14:48.801Z,10.20
2017-10-03T02:17:16.135Z,9.60
2017-10-03T02:19:43.460Z,9.10
2017-10-03T02:22:10.797Z,9.63
2017-10-03T02:24:38.105Z,9.70
2017-10-03T02:27:05.407Z,8.10
2017-10-03T02:29:32.767Z,9.20
2017-10-03T02:32:00.069Z,9.73
2017-10-03T02:34:27.400Z,8.93
2017-10-03T02:36:54.706Z,9.10
2017-10-03T02:39:22.004Z,9.73
2017-10-03T02:41:49.316Z,9.60
2017-10-03T02:44:16.634Z,9.80
2017-10-03T02:46:43.925Z,9.30
2017-10-03T02:49:11.269Z,9.93
2017-10-03T02:51:38.592Z,9.60
2017-10-03T02:54:05.945Z,9.20
2017-10-03T02:56:33.389Z,9.70
2017-10-03T02:59:00.723Z,8.87
2017-10-03T03:01:28.032Z,9.30
2017-10-03T03:03:55.337Z,9.23
2017-10-03T03:06:22.660Z,8.60
2017-10-03T03:08:49.988Z,9.47
2017-10-03T03:11:17.312Z,8.40
2017-10-03T03:13:44.628Z,8.60
2017-10-03T03:16:11.933Z,9.50
2017-10-03T03:18:39.243Z,10.40
2017-10-03T03:21:06.570Z,9.00
2017-10-03T03:23:33.860Z,9.67
2017-10-03T03:26:01.189Z,8.90
2017-10-03T03:28:28.731Z,8.50
2017-10-03T03:30:56.417Z,9.60
2017-10-03T03:33:23.710Z,9.47
2017-10-03T03:35:51.013Z,9.43
2017-10-03T03:38:18.337Z,9.30
2017-10-03T03:40:45.635Z,8.57
2017-10-03T03:43:12.980Z,9.23
2017-10-03T03:45:40.310Z,8.97
2017-10-03T03:48:07.621Z,8.70
2017-10-03T03:50:34.911Z,7.97
2017-10-03T03:53:02.262Z,9.20
2017-10-03T03:55:29.568Z,8.53
2017-10-03T03:57:56.913Z,8.70
2017-10-03T04:00:24.208Z,9.53
2017-10-03T04:02:51.530Z,8.50
2017-10-03T04:05:18.825Z,9.40
2017-10-03T04:07:46.132Z,9.20
2017-10-03T04:10:13.441Z,8.90
2017-10-03T04:12:40.802Z,8.17
2017-10-03T04:15:08.399Z,8.97
2017-10-03T04:17:35.709Z,8.30
2017-10-03T04:20:03.048Z,9.20
2017-10-03T04:22:30.348Z,8.67
2017-10-03T04:24:57.686Z,9.10
2017-10-03T04:27:25.013Z,10.00
2017-10-03T04:29:52.326Z,9.43
2017-10-03T04:32:19.624Z,9.23
2017-10-03T04:34:46.936Z,9.67
2017-10-03T04:37:14.280Z,7.90
2017-10-03T04:39:41.621Z,8.70
2017-10-03T04:42:08.956Z,7.70
2017-10-03T04:44:36.314Z,8.90
2017-10-03T04:47:03.624Z,7.23
2017-10-03T04:49:30.971Z,8.70
2017-10-03T04:51:58.296Z,9.00
2017-10-03T04:54:25.593Z,8.77
2017-10-03T04:56:52.924Z,7.87
2017-10-03T04:59:20.231Z,8.57
2017-10-03T05:01:47.553Z,8.33
2017-10-03T05:04:14.877Z,7.70
2017-10-03T05:06:42.201Z,7.53
2017-10-03T05:09:09.505Z,6.87
2017-10-03T05:11:36.857Z,7.80
2017-10-03T05:14:04.194Z,7.80
2017-10-03T05:16:31.527Z,7.60
2017-10-03T05:18:58.869Z,8.57
2017-10-03T05:21:26.216Z,7.50
2017-10-03T05:23:53.511Z,8.03
2017-10-03T05:26:20.816Z,7.70
2017-10-03T05:28:48.146Z,7.27
2017-10-03T05:31:15.492Z,7.30
